sensor_id;sensor_type;location;lat;lon;timestamp;P1;durP1;ratioP1;P2;durP2;ratioP2
24233;SDS011;12365;43.554;1.388;2022-10-23T00:00:57;8.65;;;1.40;;
24233;SDS011;12365;43.554;1.388;2022-10-23T00:03:22;13.48;;;2.00;;
24233;SDS011;12365;43.554;1.388;2022-10-23T00:05:48;8.38;;;1.90;;
24233;SDS011;12365;43.554;1.388;2022-10-23T00:08:13;4.85;;;1.33;;
24233;SDS011;12365;43.554;1.388;2022-10-23T00:10:39;7.85;;;1.70;;
24233;SDS011;12365;43.554;1.388;2022-10-23T00:13:06;4.75;;;1.50;;
24233;SDS011;12365;43.554;1.388;2022-10-23T00:15:33;6.53;;;1.45;;
24233;SDS011;12365;43.554;1.388;2022-10-23T00:17:59;7.30;;;1.58;;
24233;SDS011;12365;43.554;1.388;2022-10-23T00:20:25;6.45;;;1.60;;
24233;SDS011;12365;43.554;1.388;2022-10-23T00:22:50;4.75;;;1.55;;
24233;SDS011;12365;43.554;1.388;2022-10-23T00:25:16;5.90;;;1.52;;
24233;SDS011;12365;43.554;1.388;2022-10-23T00:27:42;8.40;;;1.50;;
24233;SDS011;12365;43.554;1.388;2022-10-23T00:30:08;9.02;;;1.67;;
24233;SDS011;12365;43.554;1.388;2022-10-23T00:32:34;6.22;;;1.30;;
24233;SDS011;12365;43.554;1.388;2022-10-23T00:35:00;6.43;;;1.85;;
24233;SDS011;12365;43.554;1.388;2022-10-23T00:37:25;7.60;;;1.52;;
24233;SDS011;12365;43.554;1.388;2022-10-23T00:39:51;5.60;;;1.58;;
24233;SDS011;12365;43.554;1.388;2022-10-23T00:42:16;8.85;;;1.45;;
24233;SDS011;12365;43.554;1.388;2022-10-23T00:47:09;6.88;;;1.65;;
24233;SDS011;12365;43.554;1.388;2022-10-23T00:49:34;6.35;;;1.42;;
24233;SDS011;12365;43.554;1.388;2022-10-23T00:52:01;9.45;;;1.60;;
24233;SDS011;12365;43.554;1.388;2022-10-23T00:54:30;5.68;;;1.40;;
24233;SDS011;12365;43.554;1.388;2022-10-23T00:57:00;6.63;;;1.30;;
24233;SDS011;12365;43.554;1.388;2022-10-23T00:59:29;4.47;;;1.27;;
24233;SDS011;12365;43.554;1.388;2022-10-23T01:01:55;3.95;;;1.23;;
24233;SDS011;12365;43.554;1.388;2022-10-23T01:04:21;4.90;;;1.30;;
24233;SDS011;12365;43.554;1.388;2022-10-23T01:12:18;6.43;;;1.73;;
24233;SDS011;12365;43.554;1.388;2022-10-23T01:17:58;8.18;;;1.45;;
24233;SDS011;12365;43.554;1.388;2022-10-23T01:28:25;7.25;;;1.50;;
24233;SDS011;12365;43.554;1.388;2022-10-23T01:30:56;5.25;;;1.38;;
24233;SDS011;12365;43.554;1.388;2022-10-23T01:33:25;6.72;;;1.65;;
24233;SDS011;12365;43.554;1.388;2022-10-23T01:38:42;8.00;;;1.63;;
24233;SDS011;12365;43.554;1.388;2022-10-23T01:42:01;6.35;;;1.60;;
24233;SDS011;12365;43.554;1.388;2022-10-23T01:44:15;7.93;;;1.85;;
24233;SDS011;12365;43.554;1.388;2022-10-23T01:46:48;9.25;;;1.60;;
24233;SDS011;12365;43.554;1.388;2022-10-23T01:49:16;9.60;;;1.90;;
24233;SDS011;12365;43.554;1.388;2022-10-23T01:51:44;5.93;;;1.45;;
24233;SDS011;12365;43.554;1.388;2022-10-23T01:54:13;5.07;;;1.40;;
24233;SDS011;12365;43.554;1.388;2022-10-23T01:56:44;8.40;;;1.70;;
24233;SDS011;12365;43.554;1.388;2022-10-23T01:59:13;5.70;;;1.80;;
24233;SDS011;12365;43.554;1.388;2022-10-23T02:01:44;9.30;;;2.00;;
24233;SDS011;12365;43.554;1.388;2022-10-23T02:04:13;6.75;;;1.65;;
24233;SDS011;12365;43.554;1.388;2022-10-23T02:06:43;9.10;;;1.58;;
24233;SDS011;12365;43.554;1.388;2022-10-23T02:09:08;7.85;;;1.70;;
24233;SDS011;12365;43.554;1.388;2022-10-23T02:11:36;6.97;;;1.40;;
24233;SDS011;12365;43.554;1.388;2022-10-23T02:14:17;8.30;;;1.80;;
24233;SDS011;12365;43.554;1.388;2022-10-23T02:16:51;4.70;;;1.42;;
24233;SDS011;12365;43.554;1.388;2022-10-23T02:19:32;10.35;;;1.80;;
24233;SDS011;12365;43.554;1.388;2022-10-23T02:22:44;6.03;;;1.80;;
24233;SDS011;12365;43.554;1.388;2022-10-23T02:24:56;6.22;;;1.90;;
24233;SDS011;12365;43.554;1.388;2022-10-23T02:28:03;6.22;;;1.45;;
24233;SDS011;12365;43.554;1.388;2022-10-23T02:30:22;5.38;;;1.80;;
24233;SDS011;12365;43.554;1.388;2022-10-23T02:32:49;10.63;;;1.90;;
24233;SDS011;12365;43.554;1.388;2022-10-23T02:35:17;15.60;;;1.52;;
24233;SDS011;12365;43.554;1.388;2022-10-23T02:37:51;7.07;;;1.67;;
24233;SDS011;12365;43.554;1.388;2022-10-23T02:40:17;8.43;;;1.83;;
24233;SDS011;12365;43.554;1.388;2022-10-23T02:42:44;6.65;;;1.85;;
24233;SDS011;12365;43.554;1.388;2022-10-23T02:50:54;7.03;;;1.80;;
24233;SDS011;12365;43.554;1.388;2022-10-23T02:56:37;9.73;;;1.77;;
24233;SDS011;12365;43.554;1.388;2022-10-23T02:59:17;7.90;;;1.88;;
24233;SDS011;12365;43.554;1.388;2022-10-23T03:01:51;6.63;;;2.10;;
24233;SDS011;12365;43.554;1.388;2022-10-23T03:04:20;5.88;;;1.40;;
24233;SDS011;12365;43.554;1.388;2022-10-23T03:06:49;7.25;;;1.98;;
24233;SDS011;12365;43.554;1.388;2022-10-23T03:09:15;6.97;;;1.98;;
24233;SDS011;12365;43.554;1.388;2022-10-23T03:11:41;10.07;;;1.70;;
24233;SDS011;12365;43.554;1.388;2022-10-23T03:14:06;9.20;;;1.75;;
24233;SDS011;12365;43.554;1.388;2022-10-23T03:16:32;4.75;;;1.65;;
24233;SDS011;12365;43.554;1.388;2022-10-23T03:18:58;8.32;;;1.95;;
24233;SDS011;12365;43.554;1.388;2022-10-23T03:21:23;5.65;;;1.60;;
24233;SDS011;12365;43.554;1.388;2022-10-23T03:23:48;7.05;;;1.95;;
24233;SDS011;12365;43.554;1.388;2022-10-23T03:26:14;6.10;;;1.90;;
24233;SDS011;12365;43.554;1.388;2022-10-23T03:28:39;9.85;;;1.75;;
24233;SDS011;12365;43.554;1.388;2022-10-23T03:31:05;10.00;;;2.20;;
24233;SDS011;12365;43.554;1.388;2022-10-23T03:33:30;9.93;;;2.10;;
24233;SDS011;12365;43.554;1.388;2022-10-23T03:35:56;8.60;;;1.65;;
24233;SDS011;12365;43.554;1.388;2022-10-23T03:38:21;9.15;;;1.70;;
24233;SDS011;12365;43.554;1.388;2022-10-23T03:40:47;7.43;;;2.00;;
24233;SDS011;12365;43.554;1.388;2022-10-23T03:43:12;6.32;;;1.73;;
24233;SDS011;12365;43.554;1.388;2022-10-23T03:45:38;7.43;;;1.98;;
24233;SDS011;12365;43.554;1.388;2022-10-23T03:48:04;10.40;;;2.08;;
24233;SDS011;12365;43.554;1.388;2022-10-23T03:50:30;8.50;;;1.95;;
24233;SDS011;12365;43.554;1.388;2022-10-23T03:52:55;9.13;;;1.83;;
24233;SDS011;12365;43.554;1.388;2022-10-23T03:55:21;7.97;;;2.22;;
24233;SDS011;12365;43.554;1.388;2022-10-23T03:57:46;10.23;;;2.33;;
24233;SDS011;12365;43.554;1.388;2022-10-23T04:00:12;8.52;;;1.90;;
24233;SDS011;12365;43.554;1.388;2022-10-23T04:02:37;6.70;;;1.63;;
24233;SDS011;12365;43.554;1.388;2022-10-23T04:05:03;14.05;;;2.00;;
24233;SDS011;12365;43.554;1.388;2022-10-23T04:07:29;9.98;;;2.00;;
24233;SDS011;12365;43.554;1.388;2022-10-23T04:09:54;10.20;;;1.67;;
24233;SDS011;12365;43.554;1.388;2022-10-23T04:12:19;6.30;;;2.13;;
24233;SDS011;12365;43.554;1.388;2022-10-23T04:14:45;8.55;;;2.22;;
24233;SDS011;12365;43.554;1.388;2022-10-23T04:17:10;8.90;;;1.95;;
24233;SDS011;12365;43.554;1.388;2022-10-23T04:19:35;5.38;;;1.90;;
24233;SDS011;12365;43.554;1.388;2022-10-23T04:22:01;10.02;;;2.03;;
24233;SDS011;12365;43.554;1.388;2022-10-23T04:24:26;7.13;;;1.95;;
24233;SDS011;12365;43.554;1.388;2022-10-23T04:26:52;6.07;;;1.85;;
24233;SDS011;12365;43.554;1.388;2022-10-23T04:29:17;6.90;;;2.08;;
24233;SDS011;12365;43.554;1.388;2022-10-23T04:31:43;8.90;;;2.53;;
24233;SDS011;12365;43.554;1.388;2022-10-23T04:34:08;9.73;;;1.90;;
24233;SDS011;12365;43.554;1.388;2022-10-23T04:36:34;4.13;;;1.67;;
24233;SDS011;12365;43.554;1.388;2022-10-23T04:38:59;14.48;;;1.88;;
24233;SDS011;12365;43.554;1.388;2022-10-23T04:41:24;7.18;;;1.80;;
24233;SDS011;12365;43.554;1.388;2022-10-23T04:43:50;13.60;;;2.22;;
24233;SDS011;12365;43.554;1.388;2022-10-23T04:46:16;9.52;;;2.10;;
24233;SDS011;12365;43.554;1.388;2022-10-23T04:48:41;7.43;;;2.30;;
24233;SDS011;12365;43.554;1.388;2022-10-23T04:51:07;13.68;;;2.40;;
24233;SDS011;12365;43.554;1.388;2022-10-23T04:53:33;10.70;;;2.53;;
24233;SDS011;12365;43.554;1.388;2022-10-23T04:55:59;6.80;;;1.92;;
24233;SDS011;12365;43.554;1.388;2022-10-23T04:58:26;11.60;;;2.00;;
24233;SDS011;12365;43.554;1.388;2022-10-23T05:00:52;14.77;;;2.20;;
24233;SDS011;12365;43.554;1.388;2022-10-23T05:03:18;11.27;;;2.03;;
24233;SDS011;12365;43.554;1.388;2022-10-23T05:05:44;11.95;;;2.30;;
24233;SDS011;12365;43.554;1.388;2022-10-23T05:08:10;9.05;;;1.83;;
24233;SDS011;12365;43.554;1.388;2022-10-23T05:10:36;8.65;;;2.05;;
24233;SDS011;12365;43.554;1.388;2022-10-23T05:13:02;9.02;;;1.98;;
24233;SDS011;12365;43.554;1.388;2022-10-23T05:15:28;9.15;;;2.13;;
24233;SDS011;12365;43.554;1.388;2022-10-23T05:17:55;10.80;;;2.30;;
24233;SDS011;12365;43.554;1.388;2022-10-23T05:20:29;11.90;;;2.10;;
24233;SDS011;12365;43.554;1.388;2022-10-23T05:22:58;8.90;;;2.10;;
24233;SDS011;12365;43.554;1.388;2022-10-23T05:25:25;7.50;;;2.00;;
24233;SDS011;12365;43.554;1.388;2022-10-23T05:27:51;9.25;;;2.22;;
24233;SDS011;12365;43.554;1.388;2022-10-23T05:30:16;7.90;;;1.98;;
24233;SDS011;12365;43.554;1.388;2022-10-23T05:32:42;12.00;;;1.88;;
24233;SDS011;12365;43.554;1.388;2022-10-23T05:35:08;12.73;;;2.30;;
24233;SDS011;12365;43.554;1.388;2022-10-23T05:37:37;7.43;;;2.10;;
24233;SDS011;12365;43.554;1.388;2022-10-23T05:40:05;9.65;;;1.90;;
24233;SDS011;12365;43.554;1.388;2022-10-23T05:42:31;9.02;;;2.15;;
24233;SDS011;12365;43.554;1.388;2022-10-23T05:44:57;8.50;;;2.20;;
24233;SDS011;12365;43.554;1.388;2022-10-23T05:47:22;7.38;;;2.47;;
24233;SDS011;12365;43.554;1.388;2022-10-23T05:49:48;11.25;;;2.15;;
24233;SDS011;12365;43.554;1.388;2022-10-23T05:52:13;11.55;;;2.58;;
24233;SDS011;12365;43.554;1.388;2022-10-23T05:54:38;14.73;;;2.40;;
24233;SDS011;12365;43.554;1.388;2022-10-23T05:57:04;13.65;;;2.70;;
24233;SDS011;12365;43.554;1.388;2022-10-23T05:59:29;8.23;;;2.13;;
24233;SDS011;12365;43.554;1.388;2022-10-23T06:01:55;11.73;;;2.17;;
24233;SDS011;12365;43.554;1.388;2022-10-23T06:04:20;9.68;;;2.35;;
24233;SDS011;12365;43.554;1.388;2022-10-23T06:06:45;11.40;;;2.30;;
24233;SDS011;12365;43.554;1.388;2022-10-23T06:09:11;9.05;;;2.20;;
24233;SDS011;12365;43.554;1.388;2022-10-23T06:11:37;16.25;;;2.55;;
24233;SDS011;12365;43.554;1.388;2022-10-23T06:14:02;7.63;;;2.00;;
24233;SDS011;12365;43.554;1.388;2022-10-23T06:16:28;13.63;;;2.50;;
24233;SDS011;12365;43.554;1.388;2022-10-23T06:18:53;9.90;;;2.10;;
24233;SDS011;12365;43.554;1.388;2022-10-23T06:21:19;11.68;;;2.55;;
24233;SDS011;12365;43.554;1.388;2022-10-23T06:23:45;12.00;;;2.38;;
24233;SDS011;12365;43.554;1.388;2022-10-23T06:26:12;10.30;;;2.78;;
24233;SDS011;12365;43.554;1.388;2022-10-23T06:28:38;11.05;;;2.80;;
24233;SDS011;12365;43.554;1.388;2022-10-23T06:31:05;11.50;;;2.80;;
24233;SDS011;12365;43.554;1.388;2022-10-23T06:33:34;10.43;;;2.38;;
24233;SDS011;12365;43.554;1.388;2022-10-23T06:35:59;15.18;;;3.25;;
24233;SDS011;12365;43.554;1.388;2022-10-23T06:38:25;10.80;;;2.58;;
24233;SDS011;12365;43.554;1.388;2022-10-23T06:40:54;12.13;;;2.47;;
24233;SDS011;12365;43.554;1.388;2022-10-23T06:43:20;15.02;;;3.10;;
24233;SDS011;12365;43.554;1.388;2022-10-23T06:45:46;9.00;;;2.05;;
24233;SDS011;12365;43.554;1.388;2022-10-23T06:48:11;10.40;;;2.60;;
24233;SDS011;12365;43.554;1.388;2022-10-23T06:50:37;7.75;;;2.38;;
24233;SDS011;12365;43.554;1.388;2022-10-23T06:53:03;7.47;;;2.15;;
24233;SDS011;12365;43.554;1.388;2022-10-23T06:55:29;10.52;;;2.58;;
24233;SDS011;12365;43.554;1.388;2022-10-23T06:57:55;8.98;;;2.55;;
24233;SDS011;12365;43.554;1.388;2022-10-23T07:00:20;6.10;;;2.20;;
24233;SDS011;12365;43.554;1.388;2022-10-23T07:02:46;10.77;;;2.88;;
24233;SDS011;12365;43.554;1.388;2022-10-23T07:05:11;13.60;;;2.33;;
24233;SDS011;12365;43.554;1.388;2022-10-23T07:07:37;10.60;;;2.50;;
24233;SDS011;12365;43.554;1.388;2022-10-23T07:10:02;15.65;;;2.72;;
24233;SDS011;12365;43.554;1.388;2022-10-23T07:12:28;12.63;;;2.63;;
24233;SDS011;12365;43.554;1.388;2022-10-23T07:14:54;9.88;;;2.65;;
24233;SDS011;12365;43.554;1.388;2022-10-23T07:17:19;11.30;;;2.50;;
24233;SDS011;12365;43.554;1.388;2022-10-23T07:19:45;9.38;;;2.75;;
24233;SDS011;12365;43.554;1.388;2022-10-23T07:22:11;11.68;;;2.42;;
24233;SDS011;12365;43.554;1.388;2022-10-23T07:24:36;10.70;;;2.95;;
24233;SDS011;12365;43.554;1.388;2022-10-23T07:27:03;17.60;;;2.70;;
24233;SDS011;12365;43.554;1.388;2022-10-23T07:29:28;9.57;;;2.92;;
24233;SDS011;12365;43.554;1.388;2022-10-23T07:31:55;9.77;;;2.75;;
24233;SDS011;12365;43.554;1.388;2022-10-23T07:34:21;13.77;;;2.58;;
24233;SDS011;12365;43.554;1.388;2022-10-23T07:36:47;15.23;;;3.40;;
24233;SDS011;12365;43.554;1.388;2022-10-23T07:39:12;12.10;;;2.45;;
24233;SDS011;12365;43.554;1.388;2022-10-23T07:41:38;10.13;;;2.30;;
24233;SDS011;12365;43.554;1.388;2022-10-23T07:44:03;13.27;;;2.42;;
24233;SDS011;12365;43.554;1.388;2022-10-23T07:46:28;10.32;;;2.60;;
24233;SDS011;12365;43.554;1.388;2022-10-23T07:48:54;12.68;;;2.67;;
24233;SDS011;12365;43.554;1.388;2022-10-23T07:51:19;13.38;;;2.50;;
24233;SDS011;12365;43.554;1.388;2022-10-23T07:53:45;12.57;;;2.92;;
24233;SDS011;12365;43.554;1.388;2022-10-23T07:56:12;12.63;;;2.40;;
24233;SDS011;12365;43.554;1.388;2022-10-23T07:58:39;12.13;;;2.45;;
24233;SDS011;12365;43.554;1.388;2022-10-23T08:01:11;14.07;;;2.78;;
24233;SDS011;12365;43.554;1.388;2022-10-23T08:03:40;14.05;;;2.60;;
24233;SDS011;12365;43.554;1.388;2022-10-23T08:06:05;11.93;;;2.65;;
24233;SDS011;12365;43.554;1.388;2022-10-23T08:08:31;8.57;;;2.22;;
24233;SDS011;12365;43.554;1.388;2022-10-23T08:10:56;13.73;;;2.83;;
24233;SDS011;12365;43.554;1.388;2022-10-23T08:13:22;16.42;;;2.72;;
24233;SDS011;12365;43.554;1.388;2022-10-23T08:15:48;14.02;;;2.78;;
24233;SDS011;12365;43.554;1.388;2022-10-23T08:18:14;8.88;;;2.67;;
24233;SDS011;12365;43.554;1.388;2022-10-23T08:20:40;15.73;;;2.90;;
24233;SDS011;12365;43.554;1.388;2022-10-23T08:23:08;10.52;;;2.33;;
24233;SDS011;12365;43.554;1.388;2022-10-23T08:25:36;9.05;;;2.60;;
24233;SDS011;12365;43.554;1.388;2022-10-23T08:28:02;8.57;;;2.55;;
24233;SDS011;12365;43.554;1.388;2022-10-23T08:30:27;12.88;;;2.40;;
24233;SDS011;12365;43.554;1.388;2022-10-23T08:32:53;11.63;;;2.67;;
24233;SDS011;12365;43.554;1.388;2022-10-23T08:35:18;9.40;;;2.20;;
24233;SDS011;12365;43.554;1.388;2022-10-23T08:37:44;14.05;;;2.72;;
24233;SDS011;12365;43.554;1.388;2022-10-23T08:40:20;9.40;;;2.40;;
24233;SDS011;12365;43.554;1.388;2022-10-23T08:42:51;9.35;;;2.58;;
24233;SDS011;12365;43.554;1.388;2022-10-23T08:45:26;8.70;;;2.53;;
24233;SDS011;12365;43.554;1.388;2022-10-23T08:47:57;10.68;;;2.60;;
24233;SDS011;12365;43.554;1.388;2022-10-23T08:50:34;7.80;;;2.40;;
24233;SDS011;12365;43.554;1.388;2022-10-23T08:55:41;8.05;;;2.40;;
24233;SDS011;12365;43.554;1.388;2022-10-23T09:00:41;12.90;;;2.88;;
24233;SDS011;12365;43.554;1.388;2022-10-23T09:03:09;10.32;;;2.75;;
24233;SDS011;12365;43.554;1.388;2022-10-23T09:17:26;14.23;;;2.85;;
24233;SDS011;12365;43.554;1.388;2022-10-23T09:20:06;11.35;;;2.95;;
24233;SDS011;12365;43.554;1.388;2022-10-23T09:22:35;13.48;;;2.95;;
24233;SDS011;12365;43.554;1.388;2022-10-23T09:25:01;17.30;;;2.97;;
24233;SDS011;12365;43.554;1.388;2022-10-23T09:27:26;12.20;;;3.35;;
24233;SDS011;12365;43.554;1.388;2022-10-23T09:29:53;14.10;;;2.50;;
24233;SDS011;12365;43.554;1.388;2022-10-23T09:32:19;11.10;;;2.45;;
24233;SDS011;12365;43.554;1.388;2022-10-23T09:34:58;11.73;;;2.55;;
24233;SDS011;12365;43.554;1.388;2022-10-23T09:37:25;12.70;;;2.97;;
24233;SDS011;12365;43.554;1.388;2022-10-23T09:42:36;11.45;;;2.88;;
24233;SDS011;12365;43.554;1.388;2022-10-23T09:45:01;11.52;;;2.60;;
24233;SDS011;12365;43.554;1.388;2022-10-23T09:47:27;7.72;;;2.42;;
24233;SDS011;12365;43.554;1.388;2022-10-23T09:49:53;9.98;;;2.83;;
24233;SDS011;12365;43.554;1.388;2022-10-23T09:52:36;14.27;;;2.80;;
24233;SDS011;12365;43.554;1.388;2022-10-23T09:55:16;10.70;;;2.75;;
24233;SDS011;12365;43.554;1.388;2022-10-23T09:57:45;10.18;;;2.90;;
24233;SDS011;12365;43.554;1.388;2022-10-23T10:00:18;11.85;;;2.40;;
24233;SDS011;12365;43.554;1.388;2022-10-23T10:02:59;13.18;;;2.50;;
24233;SDS011;12365;43.554;1.388;2022-10-23T10:08:03;10.43;;;2.70;;
24233;SDS011;12365;43.554;1.388;2022-10-23T10:10:38;11.38;;;2.70;;
24233;SDS011;12365;43.554;1.388;2022-10-23T10:13:35;11.60;;;2.60;;
24233;SDS011;12365;43.554;1.388;2022-10-23T10:21:29;10.07;;;2.28;;
24233;SDS011;12365;43.554;1.388;2022-10-23T10:27:10;13.02;;;2.40;;
24233;SDS011;12365;43.554;1.388;2022-10-23T10:30:14;9.40;;;2.30;;
24233;SDS011;12365;43.554;1.388;2022-10-23T10:35:36;11.85;;;1.98;;
24233;SDS011;12365;43.554;1.388;2022-10-23T10:40:45;9.10;;;2.00;;
24233;SDS011;12365;43.554;1.388;2022-10-23T10:46:14;9.95;;;2.10;;
24233;SDS011;12365;43.554;1.388;2022-10-23T10:48:58;12.20;;;2.20;;
24233;SDS011;12365;43.554;1.388;2022-10-23T10:51:40;10.48;;;2.22;;
24233;SDS011;12365;43.554;1.388;2022-10-23T10:57:50;6.60;;;2.28;;
24233;SDS011;12365;43.554;1.388;2022-10-23T11:00:03;9.10;;;2.05;;
24233;SDS011;12365;43.554;1.388;2022-10-23T11:05:30;11.63;;;2.40;;
24233;SDS011;12365;43.554;1.388;2022-10-23T11:08:04;8.60;;;2.28;;
24233;SDS011;12365;43.554;1.388;2022-10-23T11:10:38;11.20;;;2.25;;
24233;SDS011;12365;43.554;1.388;2022-10-23T11:15:57;7.15;;;2.00;;
24233;SDS011;12365;43.554;1.388;2022-10-23T11:18:28;12.52;;;2.28;;
24233;SDS011;12365;43.554;1.388;2022-10-23T11:31:53;3.38;;;1.15;;
24233;SDS011;12365;43.554;1.388;2022-10-23T11:37:43;1.98;;;0.90;;
24233;SDS011;12365;43.554;1.388;2022-10-23T11:48:02;4.30;;;0.98;;
24233;SDS011;12365;43.554;1.388;2022-10-23T12:01:52;4.20;;;1.10;;
24233;SDS011;12365;43.554;1.388;2022-10-23T12:12:03;3.28;;;1.10;;
24233;SDS011;12365;43.554;1.388;2022-10-23T12:14:34;3.75;;;0.90;;
24233;SDS011;12365;43.554;1.388;2022-10-23T12:20:12;4.00;;;1.10;;
24233;SDS011;12365;43.554;1.388;2022-10-23T12:25:48;9.25;;;1.00;;
24233;SDS011;12365;43.554;1.388;2022-10-23T12:28:38;9.35;;;1.00;;
24233;SDS011;12365;43.554;1.388;2022-10-23T12:39:29;1.77;;;0.70;;
24233;SDS011;12365;43.554;1.388;2022-10-23T12:41:58;6.43;;;1.00;;
24233;SDS011;12365;43.554;1.388;2022-10-23T12:44:24;6.38;;;0.93;;
24233;SDS011;12365;43.554;1.388;2022-10-23T12:46:58;7.57;;;0.80;;
24233;SDS011;12365;43.554;1.388;2022-10-23T12:49:26;6.70;;;0.80;;
24233;SDS011;12365;43.554;1.388;2022-10-23T12:51:57;4.40;;;1.00;;
24233;SDS011;12365;43.554;1.388;2022-10-23T12:54:24;8.35;;;0.80;;
24233;SDS011;12365;43.554;1.388;2022-10-23T12:56:50;6.78;;;0.90;;
24233;SDS011;12365;43.554;1.388;2022-10-23T12:59:18;4.60;;;0.80;;
24233;SDS011;12365;43.554;1.388;2022-10-23T13:01:46;4.13;;;0.88;;
24233;SDS011;12365;43.554;1.388;2022-10-23T13:04:22;5.32;;;1.02;;
24233;SDS011;12365;43.554;1.388;2022-10-23T13:06:50;6.65;;;1.10;;
24233;SDS011;12365;43.554;1.388;2022-10-23T13:11:49;6.38;;;0.98;;
24233;SDS011;12365;43.554;1.388;2022-10-23T13:15:16;5.28;;;0.80;;
24233;SDS011;12365;43.554;1.388;2022-10-23T13:17:21;6.10;;;1.08;;
24233;SDS011;12365;43.554;1.388;2022-10-23T13:22:41;4.65;;;1.00;;
24233;SDS011;12365;43.554;1.388;2022-10-23T13:27:44;5.43;;;1.20;;
24233;SDS011;12365;43.554;1.388;2022-10-23T13:30:29;4.35;;;1.30;;
24233;SDS011;12365;43.554;1.388;2022-10-23T13:32:57;6.97;;;1.30;;
24233;SDS011;12365;43.554;1.388;2022-10-23T13:35:23;6.18;;;1.17;;
24233;SDS011;12365;43.554;1.388;2022-10-23T13:37:49;7.47;;;1.45;;
24233;SDS011;12365;43.554;1.388;2022-10-23T13:42:48;8.48;;;1.30;;
24233;SDS011;12365;43.554;1.388;2022-10-23T13:45:15;8.35;;;1.35;;
24233;SDS011;12365;43.554;1.388;2022-10-23T13:47:44;7.63;;;1.40;;
24233;SDS011;12365;43.554;1.388;2022-10-23T13:50:10;4.72;;;1.13;;
24233;SDS011;12365;43.554;1.388;2022-10-23T13:52:35;9.50;;;1.30;;
24233;SDS011;12365;43.554;1.388;2022-10-23T13:55:02;10.02;;;1.48;;
24233;SDS011;12365;43.554;1.388;2022-10-23T13:57:34;11.27;;;1.45;;
24233;SDS011;12365;43.554;1.388;2022-10-23T13:59:59;11.38;;;1.40;;
24233;SDS011;12365;43.554;1.388;2022-10-23T14:02:25;6.90;;;1.67;;
24233;SDS011;12365;43.554;1.388;2022-10-23T14:04:50;8.85;;;1.50;;
24233;SDS011;12365;43.554;1.388;2022-10-23T14:07:16;8.32;;;1.40;;
24233;SDS011;12365;43.554;1.388;2022-10-23T14:09:41;8.13;;;1.73;;
24233;SDS011;12365;43.554;1.388;2022-10-23T14:12:07;8.73;;;1.75;;
24233;SDS011;12365;43.554;1.388;2022-10-23T14:14:32;10.95;;;1.73;;
24233;SDS011;12365;43.554;1.388;2022-10-23T14:16:58;6.45;;;2.70;;
24233;SDS011;12365;43.554;1.388;2022-10-23T14:19:23;10.18;;;2.00;;
24233;SDS011;12365;43.554;1.388;2022-10-23T14:21:49;6.60;;;1.70;;
24233;SDS011;12365;43.554;1.388;2022-10-23T14:24:14;10.32;;;1.85;;
24233;SDS011;12365;43.554;1.388;2022-10-23T14:26:39;7.95;;;1.40;;
24233;SDS011;12365;43.554;1.388;2022-10-23T14:29:07;6.82;;;1.83;;
24233;SDS011;12365;43.554;1.388;2022-10-23T14:31:32;9.32;;;1.77;;
24233;SDS011;12365;43.554;1.388;2022-10-23T14:33:58;8.18;;;2.00;;
24233;SDS011;12365;43.554;1.388;2022-10-23T14:36:24;9.13;;;1.90;;
24233;SDS011;12365;43.554;1.388;2022-10-23T14:38:55;8.50;;;1.58;;
24233;SDS011;12365;43.554;1.388;2022-10-23T14:43:47;9.10;;;1.70;;
24233;SDS011;12365;43.554;1.388;2022-10-23T14:46:13;8.27;;;1.98;;
24233;SDS011;12365;43.554;1.388;2022-10-23T14:48:40;7.40;;;1.52;;
24233;SDS011;12365;43.554;1.388;2022-10-23T14:51:12;9.55;;;1.60;;
24233;SDS011;12365;43.554;1.388;2022-10-23T14:53:53;12.98;;;1.63;;
24233;SDS011;12365;43.554;1.388;2022-10-23T14:56:20;8.13;;;1.60;;
24233;SDS011;12365;43.554;1.388;2022-10-23T14:58:47;9.10;;;1.65;;
24233;SDS011;12365;43.554;1.388;2022-10-23T15:01:12;15.48;;;1.90;;
24233;SDS011;12365;43.554;1.388;2022-10-23T15:03:38;7.32;;;1.52;;
24233;SDS011;12365;43.554;1.388;2022-10-23T15:06:04;8.82;;;1.63;;
24233;SDS011;12365;43.554;1.388;2022-10-23T15:08:31;8.70;;;1.30;;
24233;SDS011;12365;43.554;1.388;2022-10-23T15:11:01;8.88;;;1.73;;
24233;SDS011;12365;43.554;1.388;2022-10-23T15:13:28;10.52;;;1.77;;
24233;SDS011;12365;43.554;1.388;2022-10-23T15:16:06;6.68;;;1.60;;
24233;SDS011;12365;43.554;1.388;2022-10-23T15:18:33;16.67;;;2.40;;
24233;SDS011;12365;43.554;1.388;2022-10-23T15:21:03;6.75;;;1.88;;
24233;SDS011;12365;43.554;1.388;2022-10-23T15:23:30;13.25;;;1.95;;
24233;SDS011;12365;43.554;1.388;2022-10-23T15:25:59;7.15;;;1.80;;
24233;SDS011;12365;43.554;1.388;2022-10-23T15:28:26;18.00;;;1.77;;
24233;SDS011;12365;43.554;1.388;2022-10-23T15:30:52;12.50;;;2.30;;
24233;SDS011;12365;43.554;1.388;2022-10-23T15:33:18;8.48;;;2.03;;
24233;SDS011;12365;43.554;1.388;2022-10-23T15:35:43;9.32;;;1.75;;
24233;SDS011;12365;43.554;1.388;2022-10-23T15:38:09;7.30;;;1.55;;
24233;SDS011;12365;43.554;1.388;2022-10-23T15:40:34;7.82;;;1.85;;
24233;SDS011;12365;43.554;1.388;2022-10-23T15:43:00;7.90;;;1.70;;
24233;SDS011;12365;43.554;1.388;2022-10-23T15:45:25;9.02;;;1.95;;
24233;SDS011;12365;43.554;1.388;2022-10-23T15:47:50;11.60;;;1.90;;
24233;SDS011;12365;43.554;1.388;2022-10-23T15:50:16;12.55;;;2.00;;
24233;SDS011;12365;43.554;1.388;2022-10-23T15:52:42;19.30;;;1.80;;
24233;SDS011;12365;43.554;1.388;2022-10-23T15:55:07;12.73;;;1.80;;
24233;SDS011;12365;43.554;1.388;2022-10-23T15:57:36;12.25;;;1.88;;
24233;SDS011;12365;43.554;1.388;2022-10-23T16:00:03;14.52;;;2.10;;
24233;SDS011;12365;43.554;1.388;2022-10-23T16:02:33;14.75;;;2.05;;
24233;SDS011;12365;43.554;1.388;2022-10-23T16:04:58;8.98;;;1.65;;
24233;SDS011;12365;43.554;1.388;2022-10-23T16:07:24;10.98;;;2.00;;
24233;SDS011;12365;43.554;1.388;2022-10-23T16:09:49;12.25;;;2.10;;
24233;SDS011;12365;43.554;1.388;2022-10-23T16:12:15;8.10;;;1.38;;
24233;SDS011;12365;43.554;1.388;2022-10-23T16:14:41;8.13;;;1.38;;
24233;SDS011;12365;43.554;1.388;2022-10-23T16:17:06;8.55;;;1.70;;
24233;SDS011;12365;43.554;1.388;2022-10-23T16:19:32;8.77;;;1.65;;
24233;SDS011;12365;43.554;1.388;2022-10-23T16:21:58;11.25;;;1.48;;
24233;SDS011;12365;43.554;1.388;2022-10-23T16:24:23;5.45;;;1.10;;
24233;SDS011;12365;43.554;1.388;2022-10-23T16:26:49;6.70;;;1.27;;
24233;SDS011;12365;43.554;1.388;2022-10-23T16:29:17;5.68;;;1.25;;
24233;SDS011;12365;43.554;1.388;2022-10-23T16:31:45;6.18;;;1.27;;
24233;SDS011;12365;43.554;1.388;2022-10-23T16:34:10;4.43;;;0.80;;
24233;SDS011;12365;43.554;1.388;2022-10-23T16:36:36;4.90;;;0.80;;
24233;SDS011;12365;43.554;1.388;2022-10-23T16:39:06;4.03;;;0.80;;
24233;SDS011;12365;43.554;1.388;2022-10-23T16:41:33;5.85;;;0.82;;
24233;SDS011;12365;43.554;1.388;2022-10-23T16:43:59;2.65;;;0.88;;
24233;SDS011;12365;43.554;1.388;2022-10-23T16:46:25;1.45;;;0.50;;
24233;SDS011;12365;43.554;1.388;2022-10-23T16:48:50;2.17;;;0.60;;
24233;SDS011;12365;43.554;1.388;2022-10-23T16:51:18;1.52;;;0.45;;
24233;SDS011;12365;43.554;1.388;2022-10-23T16:53:48;1.33;;;0.45;;
24233;SDS011;12365;43.554;1.388;2022-10-23T16:56:15;4.40;;;0.45;;
24233;SDS011;12365;43.554;1.388;2022-10-23T16:58:41;2.38;;;0.60;;
24233;SDS011;12365;43.554;1.388;2022-10-23T17:03:38;3.03;;;0.35;;
24233;SDS011;12365;43.554;1.388;2022-10-23T17:06:06;1.15;;;0.40;;
24233;SDS011;12365;43.554;1.388;2022-10-23T17:08:34;5.30;;;0.60;;
24233;SDS011;12365;43.554;1.388;2022-10-23T17:11:04;3.13;;;0.75;;
24233;SDS011;12365;43.554;1.388;2022-10-23T17:13:41;5.63;;;0.53;;
24233;SDS011;12365;43.554;1.388;2022-10-23T17:16:12;3.00;;;0.47;;
24233;SDS011;12365;43.554;1.388;2022-10-23T17:18:40;1.65;;;0.45;;